sensor_id;sensor_type;location;lat;lon;timestamp;P1;durP1;ratioP1;P2;durP2;ratioP2
8704;SDS011;4389;41.932;25.904;2023-04-02T00:07:55;1.87;;;1.77;;
8704;SDS011;4389;41.932;25.904;2023-04-02T00:10:25;2.07;;;1.93;;
8704;SDS011;4389;41.932;25.904;2023-04-02T00:13:03;2.10;;;1.90;;
8704;SDS011;4389;41.932;25.904;2023-04-02T00:15:32;4.27;;;3.87;;
8704;SDS011;4389;41.932;25.904;2023-04-02T00:17:59;4.40;;;3.60;;
8704;SDS011;4389;41.932;25.904;2023-04-02T00:20:27;3.00;;;2.80;;
8704;SDS011;4389;41.932;25.904;2023-04-02T00:22:57;3.97;;;2.00;;
8704;SDS011;4389;41.932;25.904;2023-04-02T00:25:25;2.10;;;1.90;;
8704;SDS011;4389;41.932;25.904;2023-04-02T00:27:53;2.83;;;2.43;;
8704;SDS011;4389;41.932;25.904;2023-04-02T00:30:21;2.90;;;2.60;;
8704;SDS011;4389;41.932;25.904;2023-04-02T00:32:49;5.17;;;4.00;;
8704;SDS011;4389;41.932;25.904;2023-04-02T00:35:17;2.13;;;1.93;;
8704;SDS011;4389;41.932;25.904;2023-04-02T00:37:48;1.87;;;1.70;;
8704;SDS011;4389;41.932;25.904;2023-04-02T00:40:18;2.17;;;1.87;;
8704;SDS011;4389;41.932;25.904;2023-04-02T00:42:49;1.70;;;1.60;;
8704;SDS011;4389;41.932;25.904;2023-04-02T00:45:23;2.73;;;2.07;;
8704;SDS011;4389;41.932;25.904;2023-04-02T00:47:53;2.93;;;1.77;;
8704;SDS011;4389;41.932;25.904;2023-04-02T00:50:23;1.90;;;1.70;;
8704;SDS011;4389;41.932;25.904;2023-04-02T00:52:54;2.27;;;1.60;;
8704;SDS011;4389;41.932;25.904;2023-04-02T00:55:24;2.30;;;1.70;;
8704;SDS011;4389;41.932;25.904;2023-04-02T00:57:58;1.87;;;1.70;;
8704;SDS011;4389;41.932;25.904;2023-04-02T01:00:28;2.10;;;1.70;;
8704;SDS011;4389;41.932;25.904;2023-04-02T01:05:58;1.80;;;1.70;;
8704;SDS011;4389;41.932;25.904;2023-04-02T01:08:31;1.70;;;1.60;;
8704;SDS011;4389;41.932;25.904;2023-04-02T01:11:10;3.10;;;1.50;;
8704;SDS011;4389;41.932;25.904;2023-04-02T01:13:50;1.40;;;1.30;;
8704;SDS011;4389;41.932;25.904;2023-04-02T01:16:26;1.73;;;1.60;;
8704;SDS011;4389;41.932;25.904;2023-04-02T01:19:05;1.97;;;1.67;;
8704;SDS011;4389;41.932;25.904;2023-04-02T01:21:49;5.33;;;1.90;;
8704;SDS011;4389;41.932;25.904;2023-04-02T01:24:23;2.00;;;1.80;;
8704;SDS011;4389;41.932;25.904;2023-04-02T01:26:56;3.87;;;1.57;;
8704;SDS011;4389;41.932;25.904;2023-04-02T01:29:28;1.53;;;1.43;;
8704;SDS011;4389;41.932;25.904;2023-04-02T01:31:58;2.03;;;1.87;;
8704;SDS011;4389;41.932;25.904;2023-04-02T01:34:27;1.60;;;1.50;;
8704;SDS011;4389;41.932;25.904;2023-04-02T01:37:02;1.57;;;1.40;;
8704;SDS011;4389;41.932;25.904;2023-04-02T01:39:46;1.50;;;1.40;;
8704;SDS011;4389;41.932;25.904;2023-04-02T01:42:24;1.63;;;1.53;;
8704;SDS011;4389;41.932;25.904;2023-04-02T01:45:00;1.87;;;1.43;;
8704;SDS011;4389;41.932;25.904;2023-04-02T01:47:29;1.43;;;1.30;;
8704;SDS011;4389;41.932;25.904;2023-04-02T01:49:57;2.53;;;1.57;;
8704;SDS011;4389;41.932;25.904;2023-04-02T01:52:33;4.87;;;2.00;;
8704;SDS011;4389;41.932;25.904;2023-04-02T01:55:03;2.50;;;1.57;;
8704;SDS011;4389;41.932;25.904;2023-04-02T01:57:31;1.70;;;1.60;;
8704;SDS011;4389;41.932;25.904;2023-04-02T02:00:00;1.57;;;1.47;;
8704;SDS011;4389;41.932;25.904;2023-04-02T02:02:33;1.60;;;1.50;;
8704;SDS011;4389;41.932;25.904;2023-04-02T02:05:00;4.87;;;1.97;;
8704;SDS011;4389;41.932;25.904;2023-04-02T02:07:27;1.97;;;1.87;;
8704;SDS011;4389;41.932;25.904;2023-04-02T02:09:55;2.60;;;1.40;;
8704;SDS011;4389;41.932;25.904;2023-04-02T02:12:22;2.30;;;1.60;;
8704;SDS011;4389;41.932;25.904;2023-04-02T02:14:49;2.10;;;1.60;;
8704;SDS011;4389;41.932;25.904;2023-04-02T02:17:18;1.73;;;1.63;;
8704;SDS011;4389;41.932;25.904;2023-04-02T02:19:50;1.70;;;1.60;;
8704;SDS011;4389;41.932;25.904;2023-04-02T02:22:23;1.50;;;1.40;;
8704;SDS011;4389;41.932;25.904;2023-04-02T02:24:54;2.00;;;1.80;;
8704;SDS011;4389;41.932;25.904;2023-04-02T02:27:40;1.40;;;1.30;;
8704;SDS011;4389;41.932;25.904;2023-04-02T02:30:12;3.27;;;1.57;;
8704;SDS011;4389;41.932;25.904;2023-04-02T02:32:47;1.63;;;1.23;;
8704;SDS011;4389;41.932;25.904;2023-04-02T02:35:19;1.63;;;1.50;;
8704;SDS011;4389;41.932;25.904;2023-04-02T02:37:51;1.47;;;1.37;;
8704;SDS011;4389;41.932;25.904;2023-04-02T02:40:23;1.83;;;1.40;;
8704;SDS011;4389;41.932;25.904;2023-04-02T02:42:54;1.30;;;1.20;;
8704;SDS011;4389;41.932;25.904;2023-04-02T02:45:23;1.80;;;1.70;;
8704;SDS011;4389;41.932;25.904;2023-04-02T02:47:54;1.97;;;1.80;;
8704;SDS011;4389;41.932;25.904;2023-04-02T02:50:23;1.90;;;1.70;;
8704;SDS011;4389;41.932;25.904;2023-04-02T02:52:53;1.80;;;1.70;;
8704;SDS011;4389;41.932;25.904;2023-04-02T02:55:23;1.70;;;1.60;;
8704;SDS011;4389;41.932;25.904;2023-04-02T02:57:54;2.40;;;1.60;;
8704;SDS011;4389;41.932;25.904;2023-04-02T03:00:23;1.40;;;1.30;;
8704;SDS011;4389;41.932;25.904;2023-04-02T03:02:50;1.70;;;1.60;;
8704;SDS011;4389;41.932;25.904;2023-04-02T03:05:22;2.20;;;1.70;;
8704;SDS011;4389;41.932;25.904;2023-04-02T03:07:52;2.43;;;1.50;;
8704;SDS011;4389;41.932;25.904;2023-04-02T03:10:23;1.57;;;1.30;;
8704;SDS011;4389;41.932;25.904;2023-04-02T03:12:58;3.07;;;1.30;;
8704;SDS011;4389;41.932;25.904;2023-04-02T03:15:34;2.47;;;1.30;;
8704;SDS011;4389;41.932;25.904;2023-04-02T03:18:07;3.80;;;1.23;;
8704;SDS011;4389;41.932;25.904;2023-04-02T03:20:39;1.73;;;1.50;;
8704;SDS011;4389;41.932;25.904;2023-04-02T03:23:14;1.50;;;1.40;;
8704;SDS011;4389;41.932;25.904;2023-04-02T03:25:48;1.97;;;1.60;;
8704;SDS011;4389;41.932;25.904;2023-04-02T03:28:23;2.00;;;1.37;;
8704;SDS011;4389;41.932;25.904;2023-04-02T03:30:56;1.20;;;1.10;;
8704;SDS011;4389;41.932;25.904;2023-04-02T03:33:28;1.70;;;1.30;;
8704;SDS011;4389;41.932;25.904;2023-04-02T03:36:02;2.90;;;2.60;;
8704;SDS011;4389;41.932;25.904;2023-04-02T03:38:39;1.40;;;1.30;;
8704;SDS011;4389;41.932;25.904;2023-04-02T03:41:10;2.70;;;1.10;;
8704;SDS011;4389;41.932;25.904;2023-04-02T03:43:43;1.60;;;1.50;;
8704;SDS011;4389;41.932;25.904;2023-04-02T03:46:15;4.30;;;1.87;;
8704;SDS011;4389;41.932;25.904;2023-04-02T03:48:49;1.60;;;1.50;;
8704;SDS011;4389;41.932;25.904;2023-04-02T03:51:22;2.27;;;2.07;;
8704;SDS011;4389;41.932;25.904;2023-04-02T03:53:53;4.87;;;2.00;;
8704;SDS011;4389;41.932;25.904;2023-04-02T03:56:22;3.63;;;1.80;;
8704;SDS011;4389;41.932;25.904;2023-04-02T03:58:54;2.50;;;1.80;;
8704;SDS011;4389;41.932;25.904;2023-04-02T04:01:32;5.27;;;2.33;;
8704;SDS011;4389;41.932;25.904;2023-04-02T04:04:05;2.80;;;1.80;;
8704;SDS011;4389;41.932;25.904;2023-04-02T04:06:39;2.00;;;1.63;;
8704;SDS011;4389;41.932;25.904;2023-04-02T04:09:09;3.53;;;2.70;;
8704;SDS011;4389;41.932;25.904;2023-04-02T04:11:43;4.63;;;2.37;;
8704;SDS011;4389;41.932;25.904;2023-04-02T04:14:14;3.73;;;2.90;;
8704;SDS011;4389;41.932;25.904;2023-04-02T04:16:44;4.87;;;4.00;;
8704;SDS011;4389;41.932;25.904;2023-04-02T04:19:18;4.70;;;2.67;;
8704;SDS011;4389;41.932;25.904;2023-04-02T04:22:07;3.40;;;2.30;;
8704;SDS011;4389;41.932;25.904;2023-04-02T04:24:38;3.80;;;3.13;;
8704;SDS011;4389;41.932;25.904;2023-04-02T04:27:11;3.13;;;2.50;;
8704;SDS011;4389;41.932;25.904;2023-04-02T04:29:45;3.37;;;2.60;;
8704;SDS011;4389;41.932;25.904;2023-04-02T04:32:22;4.37;;;2.53;;
8704;SDS011;4389;41.932;25.904;2023-04-02T04:34:57;3.03;;;2.40;;
8704;SDS011;4389;41.932;25.904;2023-04-02T04:37:30;3.73;;;2.60;;
8704;SDS011;4389;41.932;25.904;2023-04-02T04:40:02;6.13;;;3.00;;
8704;SDS011;4389;41.932;25.904;2023-04-02T04:42:37;5.30;;;2.80;;
8704;SDS011;4389;41.932;25.904;2023-04-02T04:45:10;2.83;;;2.20;;
8704;SDS011;4389;41.932;25.904;2023-04-02T04:47:46;3.53;;;2.07;;
8704;SDS011;4389;41.932;25.904;2023-04-02T04:50:18;2.43;;;1.73;;
8704;SDS011;4389;41.932;25.904;2023-04-02T04:52:55;2.27;;;1.70;;
8704;SDS011;4389;41.932;25.904;2023-04-02T04:55:26;1.67;;;1.30;;
8704;SDS011;4389;41.932;25.904;2023-04-02T04:58:10;1.73;;;1.30;;
8704;SDS011;4389;41.932;25.904;2023-04-02T05:00:55;2.90;;;1.38;;
8704;SDS011;4389;41.932;25.904;2023-04-02T05:03:29;2.28;;;1.48;;
8704;SDS011;4389;41.932;25.904;2023-04-02T05:06:00;1.90;;;1.47;;
8704;SDS011;4389;41.932;25.904;2023-04-02T05:08:35;5.33;;;1.20;;
8704;SDS011;4389;41.932;25.904;2023-04-02T05:11:08;1.20;;;1.10;;
8704;SDS011;4389;41.932;25.904;2023-04-02T05:13:39;1.00;;;0.90;;
8704;SDS011;4389;41.932;25.904;2023-04-02T05:16:12;2.67;;;1.40;;
8704;SDS011;4389;41.932;25.904;2023-04-02T05:18:44;2.00;;;1.50;;
8704;SDS011;4389;41.932;25.904;2023-04-02T05:21:17;1.60;;;1.33;;
8704;SDS011;4389;41.932;25.904;2023-04-02T05:23:50;6.10;;;1.10;;
8704;SDS011;4389;41.932;25.904;2023-04-02T05:26:22;2.43;;;2.10;;
8704;SDS011;4389;41.932;25.904;2023-04-02T05:28:56;2.70;;;1.93;;
8704;SDS011;4389;41.932;25.904;2023-04-02T05:31:27;5.23;;;3.47;;
8704;SDS011;4389;41.932;25.904;2023-04-02T05:34:00;3.60;;;2.87;;
8704;SDS011;4389;41.932;25.904;2023-04-02T05:36:28;10.07;;;7.83;;
8704;SDS011;4389;41.932;25.904;2023-04-02T05:38:58;3.40;;;2.23;;
8704;SDS011;4389;41.932;25.904;2023-04-02T05:41:26;4.07;;;1.80;;
8704;SDS011;4389;41.932;25.904;2023-04-02T05:44:02;3.63;;;2.00;;
8704;SDS011;4389;41.932;25.904;2023-04-02T05:46:33;1.70;;;1.47;;
8704;SDS011;4389;41.932;25.904;2023-04-02T05:49:03;1.10;;;1.00;;
8704;SDS011;4389;41.932;25.904;2023-04-02T05:51:35;3.23;;;2.73;;
8704;SDS011;4389;41.932;25.904;2023-04-02T05:54:13;3.00;;;1.90;;
8704;SDS011;4389;41.932;25.904;2023-04-02T05:56:47;4.07;;;2.80;;
8704;SDS011;4389;41.932;25.904;2023-04-02T05:59:19;2.53;;;1.80;;
8704;SDS011;4389;41.932;25.904;2023-04-02T06:01:50;2.70;;;1.77;;
8704;SDS011;4389;41.932;25.904;2023-04-02T06:04:24;7.43;;;4.90;;
8704;SDS011;4389;41.932;25.904;2023-04-02T06:06:58;1.93;;;1.50;;
8704;SDS011;4389;41.932;25.904;2023-04-02T06:09:35;2.10;;;1.30;;
8704;SDS011;4389;41.932;25.904;2023-04-02T06:12:12;2.33;;;1.57;;
8704;SDS011;4389;41.932;25.904;2023-04-02T06:14:44;2.53;;;1.50;;
8704;SDS011;4389;41.932;25.904;2023-04-02T06:17:12;1.67;;;1.40;;
8704;SDS011;4389;41.932;25.904;2023-04-02T06:19:40;1.43;;;1.33;;
8704;SDS011;4389;41.932;25.904;2023-04-02T06:22:09;2.07;;;1.50;;
8704;SDS011;4389;41.932;25.904;2023-04-02T06:24:45;1.50;;;1.30;;
8704;SDS011;4389;41.932;25.904;2023-04-02T06:27:17;1.63;;;1.13;;
8704;SDS011;4389;41.932;25.904;2023-04-02T06:29:47;1.67;;;1.37;;
8704;SDS011;4389;41.932;25.904;2023-04-02T06:32:17;3.40;;;1.00;;
8704;SDS011;4389;41.932;25.904;2023-04-02T06:34:49;2.10;;;1.17;;
8704;SDS011;4389;41.932;25.904;2023-04-02T06:37:18;2.47;;;1.07;;
8704;SDS011;4389;41.932;25.904;2023-04-02T06:39:51;2.60;;;1.10;;
8704;SDS011;4389;41.932;25.904;2023-04-02T06:42:18;1.10;;;1.00;;
8704;SDS011;4389;41.932;25.904;2023-04-02T06:44:49;1.57;;;1.07;;
8704;SDS011;4389;41.932;25.904;2023-04-02T06:47:18;1.53;;;1.00;;
8704;SDS011;4389;41.932;25.904;2023-04-02T06:49:54;0.90;;;0.90;;
8704;SDS011;4389;41.932;25.904;2023-04-02T06:52:27;1.20;;;1.10;;
8704;SDS011;4389;41.932;25.904;2023-04-02T06:54:59;0.80;;;0.80;;
8704;SDS011;4389;41.932;25.904;2023-04-02T06:57:32;2.00;;;0.97;;
8704;SDS011;4389;41.932;25.904;2023-04-02T06:59:59;0.90;;;0.90;;
8704;SDS011;4389;41.932;25.904;2023-04-02T07:02:27;2.40;;;1.20;;
8704;SDS011;4389;41.932;25.904;2023-04-02T07:04:59;5.83;;;1.20;;
8704;SDS011;4389;41.932;25.904;2023-04-02T07:07:28;1.43;;;1.27;;
8704;SDS011;4389;41.932;25.904;2023-04-02T07:09:55;1.13;;;1.00;;
8704;SDS011;4389;41.932;25.904;2023-04-02T07:12:24;1.27;;;0.93;;
8704;SDS011;4389;41.932;25.904;2023-04-02T07:14:51;1.90;;;1.17;;
8704;SDS011;4389;41.932;25.904;2023-04-02T07:17:19;2.27;;;1.00;;
8704;SDS011;4389;41.932;25.904;2023-04-02T07:19:46;1.40;;;0.90;;
8704;SDS011;4389;41.932;25.904;2023-04-02T07:22:14;2.67;;;0.90;;
8704;SDS011;4389;41.932;25.904;2023-04-02T07:24:42;1.17;;;0.90;;
8704;SDS011;4389;41.932;25.904;2023-04-02T07:27:09;1.00;;;0.90;;
8704;SDS011;4389;41.932;25.904;2023-04-02T07:29:37;1.37;;;1.03;;
8704;SDS011;4389;41.932;25.904;2023-04-02T07:32:07;4.07;;;1.00;;
8704;SDS011;4389;41.932;25.904;2023-04-02T07:34:34;1.27;;;1.00;;
8704;SDS011;4389;41.932;25.904;2023-04-02T07:37:01;1.10;;;0.80;;
8704;SDS011;4389;41.932;25.904;2023-04-02T07:39:28;1.20;;;1.10;;
8704;SDS011;4389;41.932;25.904;2023-04-02T07:41:55;5.07;;;1.20;;
8704;SDS011;4389;41.932;25.904;2023-04-02T07:44:24;3.63;;;1.10;;
8704;SDS011;4389;41.932;25.904;2023-04-02T07:46:52;1.37;;;1.10;;
8704;SDS011;4389;41.932;25.904;2023-04-02T07:49:19;1.23;;;1.00;;
8704;SDS011;4389;41.932;25.904;2023-04-02T07:51:47;1.57;;;1.00;;
8704;SDS011;4389;41.932;25.904;2023-04-02T07:54:14;1.00;;;0.80;;
8704;SDS011;4389;41.932;25.904;2023-04-02T07:56:42;2.30;;;0.90;;
8704;SDS011;4389;41.932;25.904;2023-04-02T07:59:08;2.13;;;1.00;;
8704;SDS011;4389;41.932;25.904;2023-04-02T08:01:36;2.67;;;0.93;;
8704;SDS011;4389;41.932;25.904;2023-04-02T08:04:04;1.40;;;1.10;;
8704;SDS011;4389;41.932;25.904;2023-04-02T08:06:32;1.10;;;0.90;;
8704;SDS011;4389;41.932;25.904;2023-04-02T08:08:59;1.10;;;0.97;;
8704;SDS011;4389;41.932;25.904;2023-04-02T08:11:26;5.97;;;1.57;;
8704;SDS011;4389;41.932;25.904;2023-04-02T08:13:52;1.93;;;1.00;;
8704;SDS011;4389;41.932;25.904;2023-04-02T08:16:19;1.77;;;1.10;;
8704;SDS011;4389;41.932;25.904;2023-04-02T08:18:47;1.13;;;1.03;;
8704;SDS011;4389;41.932;25.904;2023-04-02T08:21:15;1.20;;;1.10;;
8704;SDS011;4389;41.932;25.904;2023-04-02T08:23:42;2.00;;;1.20;;
8704;SDS011;4389;41.932;25.904;2023-04-02T08:26:15;1.43;;;0.90;;
8704;SDS011;4389;41.932;25.904;2023-04-02T08:28:42;1.60;;;1.00;;
8704;SDS011;4389;41.932;25.904;2023-04-02T08:31:09;1.77;;;1.00;;
8704;SDS011;4389;41.932;25.904;2023-04-02T08:33:36;1.10;;;1.00;;
8704;SDS011;4389;41.932;25.904;2023-04-02T08:36:03;1.20;;;1.10;;
8704;SDS011;4389;41.932;25.904;2023-04-02T08:38:32;1.50;;;1.10;;
8704;SDS011;4389;41.932;25.904;2023-04-02T08:40:58;2.60;;;1.73;;
8704;SDS011;4389;41.932;25.904;2023-04-02T08:46:22;1.40;;;1.10;;
8704;SDS011;4389;41.932;25.904;2023-04-02T08:48:52;3.33;;;1.10;;
8704;SDS011;4389;41.932;25.904;2023-04-02T08:51:22;3.27;;;1.10;;
8704;SDS011;4389;41.932;25.904;2023-04-02T08:53:53;3.73;;;1.20;;
8704;SDS011;4389;41.932;25.904;2023-04-02T08:56:24;1.00;;;0.90;;
8704;SDS011;4389;41.932;25.904;2023-04-02T08:58:55;1.00;;;0.90;;
8704;SDS011;4389;41.932;25.904;2023-04-02T09:01:29;2.03;;;1.40;;
8704;SDS011;4389;41.932;25.904;2023-04-02T09:04:06;1.03;;;0.93;;
8704;SDS011;4389;41.932;25.904;2023-04-02T09:06:40;1.30;;;1.10;;
8704;SDS011;4389;41.932;25.904;2023-04-02T09:09:09;5.33;;;1.07;;
8704;SDS011;4389;41.932;25.904;2023-04-02T09:11:39;2.50;;;1.10;;
8704;SDS011;4389;41.932;25.904;2023-04-02T09:14:15;2.47;;;1.10;;
8704;SDS011;4389;41.932;25.904;2023-04-02T09:16:45;2.97;;;1.00;;
8704;SDS011;4389;41.932;25.904;2023-04-02T09:19:16;2.30;;;1.40;;
8704;SDS011;4389;41.932;25.904;2023-04-02T09:21:46;2.07;;;1.30;;
8704;SDS011;4389;41.932;25.904;2023-04-02T09:24:23;2.00;;;1.20;;
8704;SDS011;4389;41.932;25.904;2023-04-02T09:26:50;1.10;;;0.90;;
8704;SDS011;4389;41.932;25.904;2023-04-02T09:29:27;3.67;;;1.10;;
8704;SDS011;4389;41.932;25.904;2023-04-02T09:32:11;1.27;;;1.07;;
8704;SDS011;4389;41.932;25.904;2023-04-02T09:35:04;1.50;;;1.07;;
8704;SDS011;4389;41.932;25.904;2023-04-02T09:37:33;1.70;;;1.53;;
8704;SDS011;4389;41.932;25.904;2023-04-02T09:40:17;1.50;;;1.40;;
8704;SDS011;4389;41.932;25.904;2023-04-02T09:42:48;2.47;;;1.60;;
8704;SDS011;4389;41.932;25.904;2023-04-02T09:45:18;1.43;;;1.10;;
8704;SDS011;4389;41.932;25.904;2023-04-02T09:47:47;2.57;;;1.30;;
8704;SDS011;4389;41.932;25.904;2023-04-02T09:52:57;1.97;;;1.00;;
8704;SDS011;4389;41.932;25.904;2023-04-02T09:55:26;1.73;;;1.00;;
8704;SDS011;4389;41.932;25.904;2023-04-02T09:58:10;0.90;;;0.83;;
8704;SDS011;4389;41.932;25.904;2023-04-02T10:00:47;1.67;;;1.30;;
8704;SDS011;4389;41.932;25.904;2023-04-02T10:03:18;1.30;;;1.20;;
8704;SDS011;4389;41.932;25.904;2023-04-02T10:06:02;2.57;;;1.60;;
8704;SDS011;4389;41.932;25.904;2023-04-02T10:08:31;1.30;;;1.20;;
8704;SDS011;4389;41.932;25.904;2023-04-02T10:11:00;4.90;;;3.00;;
8704;SDS011;4389;41.932;25.904;2023-04-02T10:13:30;2.90;;;2.20;;
8704;SDS011;4389;41.932;25.904;2023-04-02T10:16:04;1.53;;;1.23;;
8704;SDS011;4389;41.932;25.904;2023-04-02T10:18:38;0.93;;;0.90;;
8704;SDS011;4389;41.932;25.904;2023-04-02T10:21:10;3.67;;;1.00;;
8704;SDS011;4389;41.932;25.904;2023-04-02T10:23:40;2.20;;;1.10;;
8704;SDS011;4389;41.932;25.904;2023-04-02T10:26:14;1.83;;;0.90;;
8704;SDS011;4389;41.932;25.904;2023-04-02T10:28:53;1.10;;;0.90;;
8704;SDS011;4389;41.932;25.904;2023-04-02T10:31:35;3.83;;;1.60;;
8704;SDS011;4389;41.932;25.904;2023-04-02T10:34:11;2.00;;;1.07;;
8704;SDS011;4389;41.932;25.904;2023-04-02T10:36:48;2.27;;;1.70;;
8704;SDS011;4389;41.932;25.904;2023-04-02T10:39:19;2.30;;;2.03;;
8704;SDS011;4389;41.932;25.904;2023-04-02T10:41:51;1.63;;;1.00;;
8704;SDS011;4389;41.932;25.904;2023-04-02T10:44:26;2.00;;;1.80;;
8704;SDS011;4389;41.932;25.904;2023-04-02T10:47:05;1.83;;;1.13;;
8704;SDS011;4389;41.932;25.904;2023-04-02T10:49:39;1.80;;;1.07;;
8704;SDS011;4389;41.932;25.904;2023-04-02T10:52:09;1.00;;;0.80;;
8704;SDS011;4389;41.932;25.904;2023-04-02T10:54:42;1.20;;;1.00;;
8704;SDS011;4389;41.932;25.904;2023-04-02T10:57:27;1.07;;;0.80;;
8704;SDS011;4389;41.932;25.904;2023-04-02T11:00:02;1.47;;;1.10;;
8704;SDS011;4389;41.932;25.904;2023-04-02T11:02:42;1.00;;;0.83;;
8704;SDS011;4389;41.932;25.904;2023-04-02T11:05:15;0.97;;;0.80;;
8704;SDS011;4389;41.932;25.904;2023-04-02T11:07:52;2.37;;;2.17;;
8704;SDS011;4389;41.932;25.904;2023-04-02T11:10:23;1.47;;;1.00;;
8704;SDS011;4389;41.932;25.904;2023-04-02T11:12:58;1.50;;;1.37;;
8704;SDS011;4389;41.932;25.904;2023-04-02T11:15:30;1.60;;;1.00;;
8704;SDS011;4389;41.932;25.904;2023-04-02T11:17:58;1.23;;;0.90;;
8704;SDS011;4389;41.932;25.904;2023-04-02T11:23:29;1.70;;;1.13;;
8704;SDS011;4389;41.932;25.904;2023-04-02T11:29:23;1.83;;;1.00;;
8704;SDS011;4389;41.932;25.904;2023-04-02T11:37:50;1.70;;;1.00;;
8704;SDS011;4389;41.932;25.904;2023-04-02T11:52:04;5.70;;;1.00;;
8704;SDS011;4389;41.932;25.904;2023-04-02T11:54:44;1.10;;;0.90;;
8704;SDS011;4389;41.932;25.904;2023-04-02T11:57:22;9.47;;;3.23;;
8704;SDS011;4389;41.932;25.904;2023-04-02T12:00:02;0.80;;;0.80;;
8704;SDS011;4389;41.932;25.904;2023-04-02T12:02:47;1.27;;;0.70;;
8704;SDS011;4389;41.932;25.904;2023-04-02T12:05:24;1.17;;;0.80;;
8704;SDS011;4389;41.932;25.904;2023-04-02T12:08:06;0.90;;;0.83;;
8704;SDS011;4389;41.932;25.904;2023-04-02T12:10:53;1.20;;;0.90;;
8704;SDS011;4389;41.932;25.904;2023-04-02T12:16:17;1.60;;;1.10;;
8704;SDS011;4389;41.932;25.904;2023-04-02T12:18:49;0.80;;;0.80;;
8704;SDS011;4389;41.932;25.904;2023-04-02T12:21:19;1.93;;;1.50;;
8704;SDS011;4389;41.932;25.904;2023-04-02T12:23:47;1.37;;;1.00;;
8704;SDS011;4389;41.932;25.904;2023-04-02T12:26:28;2.53;;;0.90;;
8704;SDS011;4389;41.932;25.904;2023-04-02T12:29:13;3.67;;;1.17;;
8704;SDS011;4389;41.932;25.904;2023-04-02T12:31:50;1.00;;;0.90;;
8704;SDS011;4389;41.932;25.904;2023-04-02T12:34:19;3.03;;;0.90;;
8704;SDS011;4389;41.932;25.904;2023-04-02T12:36:55;1.00;;;0.80;;
8704;SDS011;4389;41.932;25.904;2023-04-02T12:39:26;1.33;;;1.00;;
8704;SDS011;4389;41.932;25.904;2023-04-02T12:41:54;2.70;;;1.20;;
8704;SDS011;4389;41.932;25.904;2023-04-02T12:44:22;1.73;;;1.00;;
8704;SDS011;4389;41.932;25.904;2023-04-02T12:46:51;1.20;;;1.10;;
8704;SDS011;4389;41.932;25.904;2023-04-02T12:49:29;1.10;;;1.00;;
8704;SDS011;4389;41.932;25.904;2023-04-02T12:52:01;1.87;;;1.10;;
8704;SDS011;4389;41.932;25.904;2023-04-02T12:54:28;1.87;;;1.00;;
8704;SDS011;4389;41.932;25.904;2023-04-02T12:59:58;1.40;;;0.80;;
8704;SDS011;4389;41.932;25.904;2023-04-02T13:02:26;5.50;;;1.60;;
8704;SDS011;4389;41.932;25.904;2023-04-02T13:04:58;1.30;;;0.90;;
8704;SDS011;4389;41.932;25.904;2023-04-02T13:07:27;11.33;;;1.40;;
8704;SDS011;4389;41.932;25.904;2023-04-02T13:09:56;3.77;;;1.80;;
8704;SDS011;4389;41.932;25.904;2023-04-02T13:12:25;6.60;;;1.60;;
8704;SDS011;4389;41.932;25.904;2023-04-02T13:14:57;2.07;;;1.30;;
8704;SDS011;4389;41.932;25.904;2023-04-02T13:17:35;0.97;;;0.90;;
8704;SDS011;4389;41.932;25.904;2023-04-02T13:22:55;1.27;;;0.90;;
8704;SDS011;4389;41.932;25.904;2023-04-02T13:25:23;2.10;;;1.17;;
8704;SDS011;4389;41.932;25.904;2023-04-02T13:27:54;0.97;;;0.90;;
8704;SDS011;4389;41.932;25.904;2023-04-02T13:30:22;1.30;;;1.03;;
8704;SDS011;4389;41.932;25.904;2023-04-02T13:32:51;1.57;;;1.00;;
8704;SDS011;4389;41.932;25.904;2023-04-02T13:35:18;1.37;;;1.10;;
8704;SDS011;4389;41.932;25.904;2023-04-02T13:37:46;1.57;;;1.17;;
8704;SDS011;4389;41.932;25.904;2023-04-02T13:40:13;1.40;;;1.00;;
8704;SDS011;4389;41.932;25.904;2023-04-02T13:42:42;1.83;;;1.10;;
8704;SDS011;4389;41.932;25.904;2023-04-02T13:45:14;2.23;;;1.13;;
8704;SDS011;4389;41.932;25.904;2023-04-02T13:47:45;1.67;;;1.00;;
8704;SDS011;4389;41.932;25.904;2023-04-02T13:50:14;1.53;;;1.30;;
8704;SDS011;4389;41.932;25.904;2023-04-02T13:52:42;1.70;;;1.30;;
8704;SDS011;4389;41.932;25.904;2023-04-02T13:55:11;1.53;;;1.20;;
8704;SDS011;4389;41.932;25.904;2023-04-02T13:57:40;1.33;;;1.00;;
8704;SDS011;4389;41.932;25.904;2023-04-02T14:00:07;1.53;;;1.07;;
8704;SDS011;4389;41.932;25.904;2023-04-02T14:02:34;1.53;;;1.10;;
8704;SDS011;4389;41.932;25.904;2023-04-02T14:05:12;1.13;;;1.00;;
8704;SDS011;4389;41.932;25.904;2023-04-02T14:07:52;10.13;;;2.87;;
8704;SDS011;4389;41.932;25.904;2023-04-02T14:10:32;2.03;;;1.60;;
8704;SDS011;4389;41.932;25.904;2023-04-02T14:13:22;3.83;;;1.57;;
8704;SDS011;4389;41.932;25.904;2023-04-02T14:16:03;1.53;;;1.40;;
8704;SDS011;4389;41.932;25.904;2023-04-02T14:18:50;1.73;;;1.33;;
8704;SDS011;4389;41.932;25.904;2023-04-02T14:21:30;1.70;;;1.60;;
8704;SDS011;4389;41.932;25.904;2023-04-02T14:24:09;3.40;;;1.90;;
8704;SDS011;4389;41.932;25.904;2023-04-02T14:26:48;2.67;;;1.67;;
8704;SDS011;4389;41.932;25.904;2023-04-02T14:29:23;3.97;;;2.30;;
8704;SDS011;4389;41.932;25.904;2023-04-02T14:31:59;6.60;;;2.37;;
8704;SDS011;4389;41.932;25.904;2023-04-02T14:34:32;1.87;;;1.50;;
8704;SDS011;4389;41.932;25.904;2023-04-02T14:37:08;3.20;;;1.90;;
8704;SDS011;4389;41.932;25.904;2023-04-02T14:39:44;1.40;;;1.20;;
8704;SDS011;4389;41.932;25.904;2023-04-02T14:42:21;1.37;;;1.27;;
8704;SDS011;4389;41.932;25.904;2023-04-02T14:44:56;3.10;;;1.60;;
8704;SDS011;4389;41.932;25.904;2023-04-02T14:47:29;14.30;;;2.13;;
8704;SDS011;4389;41.932;25.904;2023-04-02T14:50:00;2.50;;;1.70;;
8704;SDS011;4389;41.932;25.904;2023-04-02T14:52:32;2.07;;;1.70;;
8704;SDS011;4389;41.932;25.904;2023-04-02T14:55:01;3.80;;;2.30;;
8704;SDS011;4389;41.932;25.904;2023-04-02T14:57:34;3.97;;;1.90;;
8704;SDS011;4389;41.932;25.904;2023-04-02T15:00:05;4.27;;;2.40;;
8704;SDS011;4389;41.932;25.904;2023-04-02T15:02:37;5.10;;;2.50;;
8704;SDS011;4389;41.932;25.904;2023-04-02T15:05:12;3.87;;;2.37;;
8704;SDS011;4389;41.932;25.904;2023-04-02T15:07:44;9.70;;;4.13;;
8704;SDS011;4389;41.932;25.904;2023-04-02T15:10:16;4.83;;;2.87;;
8704;SDS011;4389;41.932;25.904;2023-04-02T15:12:50;7.40;;;4.07;;
8704;SDS011;4389;41.932;25.904;2023-04-02T15:15:23;7.47;;;4.73;;
8704;SDS011;4389;41.932;25.904;2023-04-02T15:17:58;5.60;;;3.43;;
8704;SDS011;4389;41.932;25.904;2023-04-02T15:20:28;5.27;;;2.93;;
8704;SDS011;4389;41.932;25.904;2023-04-02T15:23:05;3.53;;;2.93;;
8704;SDS011;4389;41.932;25.904;2023-04-02T15:25:37;5.07;;;3.73;;
8704;SDS011;4389;41.932;25.904;2023-04-02T15:28:18;4.67;;;2.70;;
8704;SDS011;4389;41.932;25.904;2023-04-02T15:30:53;5.73;;;2.30;;
8704;SDS011;4389;41.932;25.904;2023-04-02T15:36:28;3.63;;;2.70;;
8704;SDS011;4389;41.932;25.904;2023-04-02T15:39:08;6.63;;;3.00;;
8704;SDS011;4389;41.932;25.904;2023-04-02T15:41:55;6.57;;;3.77;;
8704;SDS011;4389;41.932;25.904;2023-04-02T15:44:30;4.67;;;2.83;;
8704;SDS011;4389;41.932;25.904;2023-04-02T15:47:00;9.83;;;4.23;;
8704;SDS011;4389;41.932;25.904;2023-04-02T15:49:36;7.80;;;4.10;;
8704;SDS011;4389;41.932;25.904;2023-04-02T15:52:08;8.97;;;5.60;;
8704;SDS011;4389;41.932;25.904;2023-04-02T15:54:44;9.73;;;5.93;;
8704;SDS011;4389;41.932;25.904;2023-04-02T15:57:23;8.17;;;5.07;;
8704;SDS011;4389;41.932;25.904;2023-04-02T16:05:51;11.43;;;5.40;;
8704;SDS011;4389;41.932;25.904;2023-04-02T16:08:30;9.40;;;6.20;;
8704;SDS011;4389;41.932;25.904;2023-04-02T16:11:09;9.33;;;6.23;;
8704;SDS011;4389;41.932;25.904;2023-04-02T16:13:37;17.27;;;9.97;;
8704;SDS011;4389;41.932;25.904;2023-04-02T16:16:08;8.37;;;5.00;;
8704;SDS011;4389;41.932;25.904;2023-04-02T16:18:42;23.90;;;7.17;;
8704;SDS011;4389;41.932;25.904;2023-04-02T16:21:16;16.10;;;11.87;;
8704;SDS011;4389;41.932;25.904;2023-04-02T16:23:46;9.90;;;6.57;;
8704;SDS011;4389;41.932;25.904;2023-04-02T16:26:22;10.33;;;5.83;;
8704;SDS011;4389;41.932;25.904;2023-04-02T16:28:59;10.53;;;5.00;;